CheckWX is a tool to help pilots better visualize weather data.  It is not intended as a substitute for an official pre-flight weather briefing.

06:28:25 UTC

KPRS METAR
Presidio Lely International Airport
Presidio, Texas, USA
Current

13 mins ago

KPRS 280615Z AUTO 36008KT 10SM CLR 10/M12 A3033 RMK AO2 T01001125
Observed
Feb-28 @ 06:15 UTC
Wind
  • 360° at 8 KTS
Visibility
10 SM
Flight Rules
VFR
Cloud Levels
  • Clear skies
Temperature
10°C / 50°F
Dewpoint
-13°C / 9°F
Humidity
19%
Altimeter
30.33" Hg
Pressure
1027.12 hPa
Previous

33 mins ago

KPRS 280555Z AUTO 35008KT 10SM CLR 10/M13 A3033 RMK AO2 T00971127 10176 20097 401801020
Observed
Feb-28 @ 05:55 UTC
Wind
  • 350° at 8 KTS
Visibility
10 SM
Flight Rules
VFR
Cloud Levels
  • Clear skies
Temperature
10°C / 50°F
Dewpoint
-13°C / 9°F
Humidity
19%
Altimeter
30.33" Hg
Pressure
1027.12 hPa
Previous

53 mins ago

KPRS 280535Z AUTO 34008KT 10SM CLR 10/M13 A3032 RMK AO2 T01001129
Observed
Feb-28 @ 05:35 UTC
Wind
  • 340° at 8 KTS
Visibility
10 SM
Flight Rules
VFR
Cloud Levels
  • Clear skies
Temperature
10°C / 50°F
Dewpoint
-13°C / 9°F
Humidity
19%
Altimeter
30.32" Hg
Pressure
1026.72 hPa